^^
Meteo Knjazevac Station Historical Data
Daily Summary for February 28, 2021 Units:  English    Metric   Both
Daily Weekly Monthly Yearly Custom
  High: Low: Average:
Temperature: 33.6 °F 32.5 °F 33.2 °F
Dew Point: 33.4 °F 32.3 °F 33 °F
Humidity: 99% 99% 99%
Wind Speed: 3mph 0mph 0.9mph
Wind Gust: 5mph - -
Wind- - WSW
Pressure: 29.98 in 29.95 in -
Precipitation: 0.00 in    
Historical Graphs
 
 
Tabular Data for February 28, 2021
Time Temperature Dew Point Pressure Wind Wind Speed Wind Gust Humidity Rainfall Rate (Hourly) solar Conditions
00:00 33.1 °F 32.8 °F 29.98 in Calm   2 mph 99% 0.00 in 0 W/m2
00:10 33.1 °F 32.8 °F 29.98 in Calm     99% 0.00 in 0 W/m2
00:20 33.1 °F 32.8 °F 29.98 in NNW 1 mph 2 mph 99% 0.00 in 0 W/m2
00:30 33.3 °F 33 °F 29.98 in Calm   2 mph 99% 0.00 in 0 W/m2
00:40 33.3 °F 33 °F 29.98 in North 1 mph 2 mph 99% 0.00 in 0 W/m2
00:50 33.3 °F 33 °F 29.98 in Calm     99% 0.00 in 0 W/m2
01:00 33.3 °F 33.1 °F 29.97 in Calm   1 mph 99% 0.00 in 0 W/m2
01:10 33.4 °F 33.2 °F 29.97 in Calm   2 mph 99% 0.00 in 0 W/m2
01:20 33.4 °F 33.2 °F 29.97 in WNW 2 mph 3 mph 99% 0.00 in 0 W/m2
01:30 33.4 °F 33.2 °F 29.97 in WNW 2 mph 3 mph 99% 0.00 in 0 W/m2
01:40 33.4 °F 33.2 °F 29.97 in WNW 1 mph 2 mph 99% 0.00 in 0 W/m2
01:50 33.4 °F 33.2 °F 29.97 in Calm   2 mph 99% 0.00 in 0 W/m2
02:00 33.4 °F 33.2 °F 29.97 in Calm   2 mph 99% 0.00 in 0 W/m2
02:10 33.4 °F 33.2 °F 29.97 in Calm   1 mph 99% 0.00 in 0 W/m2
02:20 33.6 °F 33.4 °F 29.97 in Calm   2 mph 99% 0.00 in 0 W/m2
02:30 33.6 °F 33.4 °F 29.97 in Calm   2 mph 99% 0.00 in 0 W/m2
02:40 33.6 °F 33.4 °F 29.96 in WSW 1 mph 2 mph 99% 0.00 in 0 W/m2
02:50 33.6 °F 33.4 °F 29.96 in SW 1 mph 2 mph 99% 0.00 in 0 W/m2
03:00 33.6 °F 33.4 °F 29.96 in WNW 2 mph 3 mph 99% 0.00 in 0 W/m2
03:10 33.6 °F 33.4 °F 29.96 in NW 2 mph 5 mph 99% 0.00 in 0 W/m2
03:20 33.6 °F 33.4 °F 29.96 in West 2 mph 5 mph 99% 0.00 in 0 W/m2
03:30 33.6 °F 33.4 °F 29.96 in West 2 mph 5 mph 99% 0.00 in 0 W/m2
03:40 33.6 °F 33.4 °F 29.96 in West 2 mph 4 mph 99% 0.00 in 0 W/m2
03:50 33.6 °F 33.4 °F 29.96 in West 2 mph 4 mph 99% 0.00 in 0 W/m2
04:00 33.6 °F 33.4 °F 29.95 in SW 2 mph 3 mph 99% 0.00 in 0 W/m2
04:10 33.6 °F 33.4 °F 29.95 in Calm   3 mph 99% 0.00 in 0 W/m2
04:20 33.6 °F 33.4 °F 29.95 in West 1 mph 2 mph 99% 0.00 in 0 W/m2
04:30 33.6 °F 33.4 °F 29.95 in West 2 mph 3 mph 99% 0.00 in 0 W/m2
04:40 33.4 °F 33.2 °F 29.95 in WSW 1 mph 3 mph 99% 0.00 in 0 W/m2
04:50 33.4 °F 33.2 °F 29.95 in WSW 1 mph 2 mph 99% 0.00 in 0 W/m2
05:00 33.3 °F 33 °F 29.95 in Calm   2 mph 99% 0.00 in 0 W/m2
05:10 33.2 °F 33 °F 29.95 in West 3 mph 5 mph 99% 0.00 in 0 W/m2
05:20 33.1 °F 32.8 °F 29.95 in WSW 1 mph 5 mph 99% 0.00 in 0 W/m2
05:30 33.1 °F 32.8 °F 29.95 in Calm   2 mph 99% 0.00 in 0 W/m2
05:40 32.9 °F 32.7 °F 29.95 in Calm   2 mph 99% 0.00 in 0 W/m2
05:50 32.7 °F 32.5 °F 29.95 in SSW 1 mph 2 mph 99% 0.00 in 0 W/m2
06:00 32.7 °F 32.5 °F 29.96 in South 1 mph 2 mph 99% 0.00 in 0 W/m2
06:10 32.5 °F 32.3 °F 29.96 in Calm   2 mph 99% 0.00 in 0 W/m2
06:20 32.5 °F 32.3 °F 29.96 in SSE 1 mph 2 mph 99% 0.00 in 0 W/m2
06:30 32.5 °F 32.3 °F 29.96 in Calm   1 mph 99% 0.00 in 0 W/m2
06:40 32.7 °F 32.4 °F 29.96 in Calm   2 mph 99% 0.00 in 0 W/m2
06:50 32.7 °F 32.5 °F 29.96 in SW 2 mph 3 mph 99% 0.00 in 0 W/m2
07:00 32.7 °F 32.5 °F 29.96 in SSE 2 mph 2 mph 99% 0.00 in 0 W/m2
07:10 32.5 °F 32.3 °F 29.96 in SSW 2 mph 3 mph 99% 0.00 in 3 W/m2
07:20 32.5 °F 32.3 °F 29.96 in SSE 1 mph 2 mph 99% 0.00 in 5 W/m2
07:30 32.5 °F 32.3 °F 29.96 in Calm   2 mph 99% 0.00 in 11 W/m2
Knjazevac, Serbia
Compliments of Weather Underground - 2 mb